sensor_id;sensor_type;location;lat;lon;timestamp;temperature;humidity
15231;DHT22;32569;51.762;8.564;2022-12-19T00:00:34;-0.20;99.90
15231;DHT22;32569;51.762;8.564;2022-12-19T00:03:02;-0.20;99.90
15231;DHT22;32569;51.762;8.564;2022-12-19T00:05:28;-0.10;99.90
15231;DHT22;32569;51.762;8.564;2022-12-19T00:07:55;-0.10;99.90
15231;DHT22;32569;51.762;8.564;2022-12-19T00:10:22;0.00;99.90
15231;DHT22;32569;51.762;8.564;2022-12-19T00:12:49;0.00;99.90
15231;DHT22;32569;51.762;8.564;2022-12-19T00:15:15;0.00;99.90
15231;DHT22;32569;51.762;8.564;2022-12-19T00:17:42;0.00;99.90
15231;DHT22;32569;51.762;8.564;2022-12-19T00:20:11;0.10;99.90
15231;DHT22;32569;51.762;8.564;2022-12-19T00:22:37;0.10;99.90
15231;DHT22;32569;51.762;8.564;2022-12-19T00:25:05;0.20;99.90
15231;DHT22;32569;51.762;8.564;2022-12-19T00:27:33;0.20;99.90
15231;DHT22;32569;51.762;8.564;2022-12-19T00:30:00;0.20;99.90
15231;DHT22;32569;51.762;8.564;2022-12-19T00:32:30;0.20;99.90
15231;DHT22;32569;51.762;8.564;2022-12-19T00:34:57;0.30;99.90
15231;DHT22;32569;51.762;8.564;2022-12-19T00:37:25;0.30;99.90
15231;DHT22;32569;51.762;8.564;2022-12-19T00:39:52;0.30;99.90
15231;DHT22;32569;51.762;8.564;2022-12-19T00:42:19;0.40;99.90
15231;DHT22;32569;51.762;8.564;2022-12-19T00:44:46;0.40;99.90
15231;DHT22;32569;51.762;8.564;2022-12-19T00:47:13;0.40;99.90
15231;DHT22;32569;51.762;8.564;2022-12-19T00:49:40;0.40;99.90
15231;DHT22;32569;51.762;8.564;2022-12-19T00:52:06;0.40;99.90
15231;DHT22;32569;51.762;8.564;2022-12-19T00:54:34;0.40;99.90
15231;DHT22;32569;51.762;8.564;2022-12-19T00:57:04;0.40;99.90
15231;DHT22;32569;51.762;8.564;2022-12-19T00:59:31;0.30;99.90
15231;DHT22;32569;51.762;8.564;2022-12-19T01:01:57;0.40;99.90
15231;DHT22;32569;51.762;8.564;2022-12-19T01:04:25;0.30;99.90
15231;DHT22;32569;51.762;8.564;2022-12-19T01:06:52;0.40;99.90
15231;DHT22;32569;51.762;8.564;2022-12-19T01:09:19;0.30;99.90
15231;DHT22;32569;51.762;8.564;2022-12-19T01:11:48;0.30;99.90
15231;DHT22;32569;51.762;8.564;2022-12-19T01:14:32;0.40;99.90
15231;DHT22;32569;51.762;8.564;2022-12-19T01:16:59;0.30;99.90
15231;DHT22;32569;51.762;8.564;2022-12-19T01:19:26;0.30;99.90
15231;DHT22;32569;51.762;8.564;2022-12-19T01:21:53;0.30;99.90
15231;DHT22;32569;51.762;8.564;2022-12-19T01:24:20;0.30;99.90
15231;DHT22;32569;51.762;8.564;2022-12-19T01:26:48;0.30;99.90
15231;DHT22;32569;51.762;8.564;2022-12-19T01:29:18;0.30;99.90
15231;DHT22;32569;51.762;8.564;2022-12-19T01:31:45;0.30;99.90
15231;DHT22;32569;51.762;8.564;2022-12-19T01:34:18;0.30;99.90
15231;DHT22;32569;51.762;8.564;2022-12-19T01:36:44;0.30;99.90
15231;DHT22;32569;51.762;8.564;2022-12-19T01:39:11;0.30;99.90
15231;DHT22;32569;51.762;8.564;2022-12-19T01:41:38;0.30;99.90
15231;DHT22;32569;51.762;8.564;2022-12-19T01:44:07;0.30;99.90
15231;DHT22;32569;51.762;8.564;2022-12-19T01:46:36;0.30;99.90
15231;DHT22;32569;51.762;8.564;2022-12-19T01:49:04;0.40;99.90
15231;DHT22;32569;51.762;8.564;2022-12-19T01:51:35;0.40;99.90
15231;DHT22;32569;51.762;8.564;2022-12-19T01:54:06;0.30;99.90
15231;DHT22;32569;51.762;8.564;2022-12-19T01:56:39;0.30;99.90
15231;DHT22;32569;51.762;8.564;2022-12-19T01:59:10;0.30;99.90
15231;DHT22;32569;51.762;8.564;2022-12-19T02:01:40;0.30;99.90
15231;DHT22;32569;51.762;8.564;2022-12-19T02:04:12;0.30;99.90
15231;DHT22;32569;51.762;8.564;2022-12-19T02:06:40;0.30;99.90
15231;DHT22;32569;51.762;8.564;2022-12-19T02:09:08;0.30;99.90
15231;DHT22;32569;51.762;8.564;2022-12-19T02:11:35;0.30;99.90
15231;DHT22;32569;51.762;8.564;2022-12-19T02:14:01;0.30;99.90
15231;DHT22;32569;51.762;8.564;2022-12-19T02:16:39;0.30;99.90
15231;DHT22;32569;51.762;8.564;2022-12-19T02:19:29;0.30;99.90
15231;DHT22;32569;51.762;8.564;2022-12-19T02:22:04;0.30;99.90
15231;DHT22;32569;51.762;8.564;2022-12-19T02:25:00;0.30;99.90
15231;DHT22;32569;51.762;8.564;2022-12-19T02:27:55;0.30;99.90
15231;DHT22;32569;51.762;8.564;2022-12-19T02:30:45;0.30;99.90
15231;DHT22;32569;51.762;8.564;2022-12-19T02:33:17;0.30;99.90
15231;DHT22;32569;51.762;8.564;2022-12-19T02:35:50;0.40;99.90
15231;DHT22;32569;51.762;8.564;2022-12-19T02:38:22;0.40;99.90
15231;DHT22;32569;51.762;8.564;2022-12-19T02:40:55;0.40;99.90
15231;DHT22;32569;51.762;8.564;2022-12-19T02:43:26;0.40;99.90
15231;DHT22;32569;51.762;8.564;2022-12-19T02:45:56;0.40;99.90
15231;DHT22;32569;51.762;8.564;2022-12-19T02:48:25;0.40;99.90
15231;DHT22;32569;51.762;8.564;2022-12-19T02:50:53;0.40;99.90
15231;DHT22;32569;51.762;8.564;2022-12-19T02:53:20;0.50;99.90
15231;DHT22;32569;51.762;8.564;2022-12-19T02:56:05;0.50;99.90
15231;DHT22;32569;51.762;8.564;2022-12-19T02:58:45;0.50;99.90
15231;DHT22;32569;51.762;8.564;2022-12-19T03:01:23;0.60;99.90
15231;DHT22;32569;51.762;8.564;2022-12-19T03:04:09;0.60;99.90
15231;DHT22;32569;51.762;8.564;2022-12-19T03:06:41;0.70;99.90
15231;DHT22;32569;51.762;8.564;2022-12-19T03:09:16;0.70;99.90
15231;DHT22;32569;51.762;8.564;2022-12-19T03:11:46;0.70;99.90
15231;DHT22;32569;51.762;8.564;2022-12-19T03:14:17;0.70;99.90
15231;DHT22;32569;51.762;8.564;2022-12-19T03:16:46;0.70;99.90
15231;DHT22;32569;51.762;8.564;2022-12-19T03:19:13;0.70;99.90
15231;DHT22;32569;51.762;8.564;2022-12-19T03:21:43;0.70;99.90
15231;DHT22;32569;51.762;8.564;2022-12-19T03:24:11;0.70;99.90
15231;DHT22;32569;51.762;8.564;2022-12-19T03:26:44;0.70;99.90
15231;DHT22;32569;51.762;8.564;2022-12-19T03:29:16;0.70;99.90
15231;DHT22;32569;51.762;8.564;2022-12-19T03:31:47;0.70;99.90
15231;DHT22;32569;51.762;8.564;2022-12-19T03:34:17;0.70;99.90
15231;DHT22;32569;51.762;8.564;2022-12-19T03:36:47;0.70;99.90
15231;DHT22;32569;51.762;8.564;2022-12-19T03:39:15;0.70;99.90
15231;DHT22;32569;51.762;8.564;2022-12-19T03:41:43;0.70;99.90
15231;DHT22;32569;51.762;8.564;2022-12-19T03:44:33;0.70;99.90
15231;DHT22;32569;51.762;8.564;2022-12-19T03:47:07;0.80;99.90
15231;DHT22;32569;51.762;8.564;2022-12-19T03:49:35;0.80;99.90
15231;DHT22;32569;51.762;8.564;2022-12-19T03:52:09;0.70;99.90
15231;DHT22;32569;51.762;8.564;2022-12-19T03:54:39;0.70;99.90
15231;DHT22;32569;51.762;8.564;2022-12-19T03:57:11;0.70;99.90
15231;DHT22;32569;51.762;8.564;2022-12-19T03:59:45;0.70;99.90
15231;DHT22;32569;51.762;8.564;2022-12-19T04:02:17;0.70;99.90
15231;DHT22;32569;51.762;8.564;2022-12-19T04:04:51;0.70;99.90
15231;DHT22;32569;51.762;8.564;2022-12-19T04:07:19;0.70;99.90
15231;DHT22;32569;51.762;8.564;2022-12-19T04:09:48;0.70;99.90
15231;DHT22;32569;51.762;8.564;2022-12-19T04:12:18;0.80;99.90
15231;DHT22;32569;51.762;8.564;2022-12-19T04:14:48;0.70;99.90
15231;DHT22;32569;51.762;8.564;2022-12-19T04:17:21;0.70;99.90
15231;DHT22;32569;51.762;8.564;2022-12-19T04:19:54;0.80;99.90
15231;DHT22;32569;51.762;8.564;2022-12-19T04:22:29;0.80;99.90
15231;DHT22;32569;51.762;8.564;2022-12-19T04:24:58;0.80;99.90
15231;DHT22;32569;51.762;8.564;2022-12-19T04:27:26;0.80;99.90
15231;DHT22;32569;51.762;8.564;2022-12-19T04:29:55;0.70;99.90
15231;DHT22;32569;51.762;8.564;2022-12-19T04:32:24;0.80;99.90
15231;DHT22;32569;51.762;8.564;2022-12-19T04:34:52;0.80;99.90
15231;DHT22;32569;51.762;8.564;2022-12-19T04:37:22;0.80;99.90
15231;DHT22;32569;51.762;8.564;2022-12-19T04:39:48;0.70;99.90
15231;DHT22;32569;51.762;8.564;2022-12-19T04:42:15;0.70;99.90
15231;DHT22;32569;51.762;8.564;2022-12-19T04:44:42;0.80;99.90
15231;DHT22;32569;51.762;8.564;2022-12-19T04:47:08;0.80;99.90
15231;DHT22;32569;51.762;8.564;2022-12-19T04:49:37;0.80;99.90
15231;DHT22;32569;51.762;8.564;2022-12-19T04:52:04;0.80;99.90
15231;DHT22;32569;51.762;8.564;2022-12-19T04:54:31;0.80;99.90
15231;DHT22;32569;51.762;8.564;2022-12-19T04:56:58;0.80;99.90
15231;DHT22;32569;51.762;8.564;2022-12-19T04:59:25;0.80;99.90
15231;DHT22;32569;51.762;8.564;2022-12-19T05:01:52;0.80;99.90
15231;DHT22;32569;51.762;8.564;2022-12-19T05:04:18;0.90;99.90
15231;DHT22;32569;51.762;8.564;2022-12-19T05:06:47;0.90;99.90
15231;DHT22;32569;51.762;8.564;2022-12-19T05:09:13;0.90;99.90
15231;DHT22;32569;51.762;8.564;2022-12-19T05:11:40;0.90;99.90
15231;DHT22;32569;51.762;8.564;2022-12-19T05:14:07;1.00;99.90
15231;DHT22;32569;51.762;8.564;2022-12-19T05:16:34;1.00;99.90
15231;DHT22;32569;51.762;8.564;2022-12-19T05:19:01;1.00;99.90
15231;DHT22;32569;51.762;8.564;2022-12-19T05:21:28;1.10;99.90
15231;DHT22;32569;51.762;8.564;2022-12-19T05:23:56;1.00;99.90
15231;DHT22;32569;51.762;8.564;2022-12-19T05:26:23;1.00;99.90
15231;DHT22;32569;51.762;8.564;2022-12-19T05:28:49;1.00;99.90
15231;DHT22;32569;51.762;8.564;2022-12-19T05:31:18;1.00;99.90
15231;DHT22;32569;51.762;8.564;2022-12-19T05:33:45;1.00;99.90
15231;DHT22;32569;51.762;8.564;2022-12-19T05:36:14;1.10;99.90
15231;DHT22;32569;51.762;8.564;2022-12-19T05:38:41;1.10;99.90
15231;DHT22;32569;51.762;8.564;2022-12-19T05:41:11;1.10;99.90
15231;DHT22;32569;51.762;8.564;2022-12-19T05:43:38;1.10;99.90
15231;DHT22;32569;51.762;8.564;2022-12-19T05:46:05;1.10;99.90
15231;DHT22;32569;51.762;8.564;2022-12-19T05:48:32;1.20;99.90
15231;DHT22;32569;51.762;8.564;2022-12-19T05:51:00;1.20;99.90
15231;DHT22;32569;51.762;8.564;2022-12-19T05:53:27;1.20;99.90
15231;DHT22;32569;51.762;8.564;2022-12-19T05:56:02;1.20;99.90
15231;DHT22;32569;51.762;8.564;2022-12-19T05:58:30;1.30;99.90
15231;DHT22;32569;51.762;8.564;2022-12-19T06:01:01;1.30;99.90
15231;DHT22;32569;51.762;8.564;2022-12-19T06:03:28;1.40;99.90
15231;DHT22;32569;51.762;8.564;2022-12-19T06:05:54;1.40;99.90
15231;DHT22;32569;51.762;8.564;2022-12-19T06:08:21;1.40;99.90
15231;DHT22;32569;51.762;8.564;2022-12-19T06:10:48;1.40;99.90
15231;DHT22;32569;51.762;8.564;2022-12-19T06:13:15;1.40;99.90
15231;DHT22;32569;51.762;8.564;2022-12-19T06:15:43;1.50;99.90
15231;DHT22;32569;51.762;8.564;2022-12-19T06:18:09;1.50;99.90
15231;DHT22;32569;51.762;8.564;2022-12-19T06:20:36;1.50;99.90
15231;DHT22;32569;51.762;8.564;2022-12-19T06:23:03;1.50;99.90
15231;DHT22;32569;51.762;8.564;2022-12-19T06:25:30;1.50;99.90
15231;DHT22;32569;51.762;8.564;2022-12-19T06:27:56;1.50;99.90
15231;DHT22;32569;51.762;8.564;2022-12-19T06:30:23;1.50;99.90
15231;DHT22;32569;51.762;8.564;2022-12-19T06:32:51;1.60;99.90
15231;DHT22;32569;51.762;8.564;2022-12-19T06:35:18;1.50;99.90
15231;DHT22;32569;51.762;8.564;2022-12-19T06:37:47;1.60;99.90
15231;DHT22;32569;51.762;8.564;2022-12-19T06:40:15;1.60;99.90
15231;DHT22;32569;51.762;8.564;2022-12-19T06:43:02;1.60;99.90
15231;DHT22;32569;51.762;8.564;2022-12-19T06:45:29;1.60;99.90
15231;DHT22;32569;51.762;8.564;2022-12-19T06:47:57;1.60;99.90
15231;DHT22;32569;51.762;8.564;2022-12-19T06:50:24;1.60;99.90
15231;DHT22;32569;51.762;8.564;2022-12-19T06:52:51;1.60;99.90
15231;DHT22;32569;51.762;8.564;2022-12-19T06:55:17;1.60;99.90
15231;DHT22;32569;51.762;8.564;2022-12-19T06:57:44;1.50;99.90
15231;DHT22;32569;51.762;8.564;2022-12-19T07:00:12;1.50;99.90
15231;DHT22;32569;51.762;8.564;2022-12-19T07:02:42;1.50;99.90
15231;DHT22;32569;51.762;8.564;2022-12-19T07:05:11;1.50;99.90
15231;DHT22;32569;51.762;8.564;2022-12-19T07:07:38;1.40;99.90
15231;DHT22;32569;51.762;8.564;2022-12-19T07:10:07;1.40;99.90
15231;DHT22;32569;51.762;8.564;2022-12-19T07:12:34;1.40;99.90
15231;DHT22;32569;51.762;8.564;2022-12-19T07:15:01;1.40;99.90
15231;DHT22;32569;51.762;8.564;2022-12-19T07:17:28;1.40;99.90
15231;DHT22;32569;51.762;8.564;2022-12-19T07:19:56;1.40;99.90
15231;DHT22;32569;51.762;8.564;2022-12-19T07:22:28;1.40;99.90
15231;DHT22;32569;51.762;8.564;2022-12-19T07:24:56;1.30;99.90
15231;DHT22;32569;51.762;8.564;2022-12-19T07:27:24;1.30;99.90
15231;DHT22;32569;51.762;8.564;2022-12-19T07:29:52;1.30;99.90
15231;DHT22;32569;51.762;8.564;2022-12-19T07:32:19;1.30;99.90
15231;DHT22;32569;51.762;8.564;2022-12-19T07:34:46;1.40;99.90
15231;DHT22;32569;51.762;8.564;2022-12-19T07:37:13;1.40;99.90
15231;DHT22;32569;51.762;8.564;2022-12-19T07:39:41;1.40;99.90
15231;DHT22;32569;51.762;8.564;2022-12-19T07:42:08;1.40;99.90
15231;DHT22;32569;51.762;8.564;2022-12-19T07:44:34;1.40;99.90
15231;DHT22;32569;51.762;8.564;2022-12-19T07:47:01;1.40;99.90
15231;DHT22;32569;51.762;8.564;2022-12-19T07:49:28;1.50;99.90
15231;DHT22;32569;51.762;8.564;2022-12-19T07:51:55;1.50;99.90
15231;DHT22;32569;51.762;8.564;2022-12-19T07:54:21;1.50;99.90
15231;DHT22;32569;51.762;8.564;2022-12-19T07:56:50;1.60;99.90
15231;DHT22;32569;51.762;8.564;2022-12-19T07:59:17;1.60;99.90
15231;DHT22;32569;51.762;8.564;2022-12-19T08:01:43;1.70;99.90
15231;DHT22;32569;51.762;8.564;2022-12-19T08:04:10;1.70;99.90
15231;DHT22;32569;51.762;8.564;2022-12-19T08:06:37;1.80;99.90
15231;DHT22;32569;51.762;8.564;2022-12-19T08:09:04;1.80;99.90
15231;DHT22;32569;51.762;8.564;2022-12-19T08:11:31;1.90;99.90
15231;DHT22;32569;51.762;8.564;2022-12-19T08:13:59;1.90;99.90
15231;DHT22;32569;51.762;8.564;2022-12-19T08:16:26;2.00;99.90
15231;DHT22;32569;51.762;8.564;2022-12-19T08:18:54;2.00;99.90
15231;DHT22;32569;51.762;8.564;2022-12-19T08:21:21;2.10;99.90
15231;DHT22;32569;51.762;8.564;2022-12-19T08:23:48;2.10;99.90
15231;DHT22;32569;51.762;8.564;2022-12-19T08:26:16;2.10;99.90
15231;DHT22;32569;51.762;8.564;2022-12-19T08:28:49;2.20;99.90
15231;DHT22;32569;51.762;8.564;2022-12-19T08:31:18;2.30;99.90
15231;DHT22;32569;51.762;8.564;2022-12-19T08:33:46;2.30;99.90
15231;DHT22;32569;51.762;8.564;2022-12-19T08:36:15;2.30;99.90
15231;DHT22;32569;51.762;8.564;2022-12-19T08:38:43;2.30;99.90
15231;DHT22;32569;51.762;8.564;2022-12-19T08:41:11;2.40;99.90
15231;DHT22;32569;51.762;8.564;2022-12-19T08:43:37;2.40;99.90
15231;DHT22;32569;51.762;8.564;2022-12-19T08:46:04;2.50;99.90
15231;DHT22;32569;51.762;8.564;2022-12-19T08:48:33;2.50;99.90
15231;DHT22;32569;51.762;8.564;2022-12-19T08:51:02;2.50;99.90
15231;DHT22;32569;51.762;8.564;2022-12-19T08:53:30;2.70;99.90
15231;DHT22;32569;51.762;8.564;2022-12-19T08:56:00;2.70;99.90
15231;DHT22;32569;51.762;8.564;2022-12-19T08:58:28;2.70;99.90
15231;DHT22;32569;51.762;8.564;2022-12-19T09:00:58;2.80;99.90
15231;DHT22;32569;51.762;8.564;2022-12-19T09:03:26;2.90;99.90
15231;DHT22;32569;51.762;8.564;2022-12-19T09:05:57;3.00;99.90
15231;DHT22;32569;51.762;8.564;2022-12-19T09:08:24;3.10;99.90
15231;DHT22;32569;51.762;8.564;2022-12-19T09:10:57;3.10;99.90
15231;DHT22;32569;51.762;8.564;2022-12-19T09:13:25;3.10;99.90
15231;DHT22;32569;51.762;8.564;2022-12-19T09:15:58;3.20;99.90
15231;DHT22;32569;51.762;8.564;2022-12-19T09:18:25;3.10;99.90
15231;DHT22;32569;51.762;8.564;2022-12-19T09:20:52;3.10;99.90
15231;DHT22;32569;51.762;8.564;2022-12-19T09:23:21;3.10;99.90
15231;DHT22;32569;51.762;8.564;2022-12-19T09:25:48;3.10;99.90
15231;DHT22;32569;51.762;8.564;2022-12-19T09:28:15;3.20;99.90
15231;DHT22;32569;51.762;8.564;2022-12-19T09:30:42;3.30;99.90
15231;DHT22;32569;51.762;8.564;2022-12-19T09:33:09;3.40;99.90
15231;DHT22;32569;51.762;8.564;2022-12-19T09:35:37;3.60;99.90
15231;DHT22;32569;51.762;8.564;2022-12-19T09:38:03;3.70;99.90
15231;DHT22;32569;51.762;8.564;2022-12-19T09:40:43;3.70;99.90
15231;DHT22;32569;51.762;8.564;2022-12-19T09:43:19;3.90;99.90
15231;DHT22;32569;51.762;8.564;2022-12-19T09:45:57;4.10;99.90
15231;DHT22;32569;51.762;8.564;2022-12-19T09:48:28;4.20;99.90
15231;DHT22;32569;51.762;8.564;2022-12-19T09:50:57;4.20;99.90
15231;DHT22;32569;51.762;8.564;2022-12-19T09:53:30;4.10;99.90
15231;DHT22;32569;51.762;8.564;2022-12-19T09:56:02;4.10;99.90
15231;DHT22;32569;51.762;8.564;2022-12-19T09:58:36;4.40;99.90
15231;DHT22;32569;51.762;8.564;2022-12-19T10:01:14;4.60;99.90
15231;DHT22;32569;51.762;8.564;2022-12-19T10:03:45;4.60;99.90
15231;DHT22;32569;51.762;8.564;2022-12-19T10:06:17;4.60;99.90
15231;DHT22;32569;51.762;8.564;2022-12-19T10:08:45;4.50;99.90
15231;DHT22;32569;51.762;8.564;2022-12-19T10:11:30;4.60;99.90
15231;DHT22;32569;51.762;8.564;2022-12-19T10:14:13;4.50;99.90
15231;DHT22;32569;51.762;8.564;2022-12-19T10:16:50;4.40;99.90
15231;DHT22;32569;51.762;8.564;2022-12-19T10:19:22;4.40;99.90
15231;DHT22;32569;51.762;8.564;2022-12-19T10:21:58;4.40;99.90
15231;DHT22;32569;51.762;8.564;2022-12-19T10:24:50;4.40;99.90
15231;DHT22;32569;51.762;8.564;2022-12-19T10:27:28;4.40;99.90
15231;DHT22;32569;51.762;8.564;2022-12-19T10:30:02;4.50;99.90
15231;DHT22;32569;51.762;8.564;2022-12-19T10:32:35;4.50;99.90
15231;DHT22;32569;51.762;8.564;2022-12-19T10:35:12;4.50;99.90
15231;DHT22;32569;51.762;8.564;2022-12-19T10:37:43;4.60;99.90
15231;DHT22;32569;51.762;8.564;2022-12-19T10:40:14;4.70;99.90
15231;DHT22;32569;51.762;8.564;2022-12-19T10:42:49;4.70;99.90
15231;DHT22;32569;51.762;8.564;2022-12-19T10:45:18;4.70;99.90
15231;DHT22;32569;51.762;8.564;2022-12-19T10:47:46;4.70;99.90
15231;DHT22;32569;51.762;8.564;2022-12-19T10:50:18;4.70;99.90
15231;DHT22;32569;51.762;8.564;2022-12-19T10:52:50;4.80;99.90
15231;DHT22;32569;51.762;8.564;2022-12-19T10:55:32;4.90;99.90
15231;DHT22;32569;51.762;8.564;2022-12-19T10:58:11;4.80;99.90
15231;DHT22;32569;51.762;8.564;2022-12-19T11:00:45;4.90;99.90
15231;DHT22;32569;51.762;8.564;2022-12-19T11:03:14;4.90;99.90
15231;DHT22;32569;51.762;8.564;2022-12-19T11:05:47;5.10;99.90
15231;DHT22;32569;51.762;8.564;2022-12-19T11:08:17;5.20;99.90
15231;DHT22;32569;51.762;8.564;2022-12-19T11:10:46;5.30;99.90
15231;DHT22;32569;51.762;8.564;2022-12-19T11:13:21;5.40;99.90
15231;DHT22;32569;51.762;8.564;2022-12-19T11:15:50;5.40;99.90
15231;DHT22;32569;51.762;8.564;2022-12-19T11:18:19;5.30;99.90
15231;DHT22;32569;51.762;8.564;2022-12-19T11:20:58;5.30;99.90
15231;DHT22;32569;51.762;8.564;2022-12-19T11:23:27;5.30;99.90
15231;DHT22;32569;51.762;8.564;2022-12-19T11:25:56;5.30;99.90
15231;DHT22;32569;51.762;8.564;2022-12-19T11:28:28;5.30;99.90
15231;DHT22;32569;51.762;8.564;2022-12-19T11:31:02;5.30;99.90
15231;DHT22;32569;51.762;8.564;2022-12-19T11:33:30;5.30;99.90
15231;DHT22;32569;51.762;8.564;2022-12-19T11:36:00;5.40;99.90
15231;DHT22;32569;51.762;8.564;2022-12-19T11:38:39;5.40;99.90
15231;DHT22;32569;51.762;8.564;2022-12-19T11:41:12;5.50;99.90
15231;DHT22;32569;51.762;8.564;2022-12-19T11:43:49;5.50;99.90
15231;DHT22;32569;51.762;8.564;2022-12-19T11:46:25;5.50;99.90
15231;DHT22;32569;51.762;8.564;2022-12-19T11:48:59;5.50;99.90
15231;DHT22;32569;51.762;8.564;2022-12-19T11:51:32;5.40;99.90
15231;DHT22;32569;51.762;8.564;2022-12-19T11:54:06;5.40;99.90
15231;DHT22;32569;51.762;8.564;2022-12-19T11:56:35;5.40;99.90
15231;DHT22;32569;51.762;8.564;2022-12-19T11:59:16;5.50;99.90
15231;DHT22;32569;51.762;8.564;2022-12-19T12:02:14;5.50;99.90
15231;DHT22;32569;51.762;8.564;2022-12-19T12:04:58;5.50;99.90
15231;DHT22;32569;51.762;8.564;2022-12-19T12:07:33;5.50;99.90
15231;DHT22;32569;51.762;8.564;2022-12-19T12:10:05;5.60;99.90
15231;DHT22;32569;51.762;8.564;2022-12-19T12:12:48;5.60;99.90
15231;DHT22;32569;51.762;8.564;2022-12-19T12:15:30;5.50;99.90
15231;DHT22;32569;51.762;8.564;2022-12-19T12:18:05;5.60;99.90
15231;DHT22;32569;51.762;8.564;2022-12-19T12:20:42;5.60;99.90
15231;DHT22;32569;51.762;8.564;2022-12-19T12:23:23;5.60;99.90
15231;DHT22;32569;51.762;8.564;2022-12-19T12:25:58;5.60;99.90
15231;DHT22;32569;51.762;8.564;2022-12-19T12:28:47;5.60;99.90
15231;DHT22;32569;51.762;8.564;2022-12-19T12:31:36;5.60;99.90
15231;DHT22;32569;51.762;8.564;2022-12-19T12:34:21;5.60;99.90
15231;DHT22;32569;51.762;8.564;2022-12-19T12:37:01;5.60;99.90
15231;DHT22;32569;51.762;8.564;2022-12-19T12:39:34;5.50;99.90
15231;DHT22;32569;51.762;8.564;2022-12-19T12:42:13;5.50;99.90
15231;DHT22;32569;51.762;8.564;2022-12-19T12:44:47;5.50;99.90
15231;DHT22;32569;51.762;8.564;2022-12-19T12:47:20;5.50;99.90
15231;DHT22;32569;51.762;8.564;2022-12-19T12:49:51;5.50;99.90
15231;DHT22;32569;51.762;8.564;2022-12-19T12:52:24;5.50;99.90
15231;DHT22;32569;51.762;8.564;2022-12-19T12:54:53;5.50;99.90
15231;DHT22;32569;51.762;8.564;2022-12-19T12:57:33;5.50;99.90
15231;DHT22;32569;51.762;8.564;2022-12-19T13:00:15;5.50;99.90
15231;DHT22;32569;51.762;8.564;2022-12-19T13:02:48;5.50;99.90
15231;DHT22;32569;51.762;8.564;2022-12-19T13:05:31;5.50;99.90
15231;DHT22;32569;51.762;8.564;2022-12-19T13:08:00;5.50;99.90
15231;DHT22;32569;51.762;8.564;2022-12-19T13:10:28;5.50;99.90
15231;DHT22;32569;51.762;8.564;2022-12-19T13:12:59;5.50;99.90
15231;DHT22;32569;51.762;8.564;2022-12-19T13:15:39;5.40;99.90
15231;DHT22;32569;51.762;8.564;2022-12-19T13:18:29;5.50;99.90
15231;DHT22;32569;51.762;8.564;2022-12-19T13:20:57;5.40;99.90
15231;DHT22;32569;51.762;8.564;2022-12-19T13:23:49;5.40;99.90
15231;DHT22;32569;51.762;8.564;2022-12-19T13:29:32;5.30;99.90
15231;DHT22;32569;51.762;8.564;2022-12-19T13:32:12;5.40;99.90
15231;DHT22;32569;51.762;8.564;2022-12-19T13:34:53;5.40;99.90
15231;DHT22;32569;51.762;8.564;2022-12-19T13:37:38;5.40;99.90
15231;DHT22;32569;51.762;8.564;2022-12-19T13:40:21;5.40;99.90
15231;DHT22;32569;51.762;8.564;2022-12-19T13:43:10;5.40;99.90
15231;DHT22;32569;51.762;8.564;2022-12-19T13:45:58;5.40;99.90
15231;DHT22;32569;51.762;8.564;2022-12-19T13:48:31;5.40;99.90
15231;DHT22;32569;51.762;8.564;2022-12-19T13:51:04;5.50;99.90
15231;DHT22;32569;51.762;8.564;2022-12-19T13:53:31;5.50;99.90
15231;DHT22;32569;51.762;8.564;2022-12-19T13:55:59;5.50;99.90
15231;DHT22;32569;51.762;8.564;2022-12-19T13:58:28;5.60;99.90
15231;DHT22;32569;51.762;8.564;2022-12-19T14:00:57;5.70;99.90
15231;DHT22;32569;51.762;8.564;2022-12-19T14:03:32;5.80;99.90
15231;DHT22;32569;51.762;8.564;2022-12-19T14:06:09;6.10;99.90
15231;DHT22;32569;51.762;8.564;2022-12-19T14:08:36;6.20;99.90
15231;DHT22;32569;51.762;8.564;2022-12-19T14:11:07;6.40;99.90
15231;DHT22;32569;51.762;8.564;2022-12-19T14:13:42;6.30;99.90
15231;DHT22;32569;51.762;8.564;2022-12-19T14:16:27;6.20;99.90
15231;DHT22;32569;51.762;8.564;2022-12-19T14:18:54;6.10;99.90
15231;DHT22;32569;51.762;8.564;2022-12-19T14:21:24;6.10;99.90
15231;DHT22;32569;51.762;8.564;2022-12-19T14:23:52;6.00;99.90
15231;DHT22;32569;51.762;8.564;2022-12-19T14:26:24;6.00;99.90
15231;DHT22;32569;51.762;8.564;2022-12-19T14:28:55;5.90;99.90
15231;DHT22;32569;51.762;8.564;2022-12-19T14:31:25;5.90;99.90
15231;DHT22;32569;51.762;8.564;2022-12-19T14:33:52;5.70;99.90
15231;DHT22;32569;51.762;8.564;2022-12-19T14:36:24;5.70;99.90
15231;DHT22;32569;51.762;8.564;2022-12-19T14:38:52;5.60;99.90
15231;DHT22;32569;51.762;8.564;2022-12-19T14:41:34;5.60;99.90
15231;DHT22;32569;51.762;8.564;2022-12-19T14:44:20;5.50;99.90
15231;DHT22;32569;51.762;8.564;2022-12-19T14:46:59;5.50;99.90
15231;DHT22;32569;51.762;8.564;2022-12-19T14:49:31;5.50;99.90
15231;DHT22;32569;51.762;8.564;2022-12-19T14:52:01;5.50;99.90
15231;DHT22;32569;51.762;8.564;2022-12-19T14:54:28;5.50;99.90
15231;DHT22;32569;51.762;8.564;2022-12-19T14:56:57;5.60;99.90
15231;DHT22;32569;51.762;8.564;2022-12-19T14:59:30;5.70;99.90
15231;DHT22;32569;51.762;8.564;2022-12-19T15:02:01;5.80;99.90
15231;DHT22;32569;51.762;8.564;2022-12-19T15:04:31;5.70;99.90
15231;DHT22;32569;51.762;8.564;2022-12-19T15:07:03;5.60;99.90
15231;DHT22;32569;51.762;8.564;2022-12-19T15:09:36;5.60;99.90
15231;DHT22;32569;51.762;8.564;2022-12-19T15:12:10;5.60;99.90
15231;DHT22;32569;51.762;8.564;2022-12-19T15:15:06;5.50;99.90
15231;DHT22;32569;51.762;8.564;2022-12-19T15:17:44;5.50;99.90
15231;DHT22;32569;51.762;8.564;2022-12-19T15:20:12;5.50;99.90
15231;DHT22;32569;51.762;8.564;2022-12-19T15:22:40;5.40;99.90
15231;DHT22;32569;51.762;8.564;2022-12-19T15:25:12;5.40;99.90
15231;DHT22;32569;51.762;8.564;2022-12-19T15:27:47;5.40;99.90
15231;DHT22;32569;51.762;8.564;2022-12-19T15:30:15;5.30;99.90
15231;DHT22;32569;51.762;8.564;2022-12-19T15:32:43;5.20;99.90
15231;DHT22;32569;51.762;8.564;2022-12-19T15:35:16;5.20;99.90
15231;DHT22;32569;51.762;8.564;2022-12-19T15:37:46;5.10;99.90
15231;DHT22;32569;51.762;8.564;2022-12-19T15:40:14;5.10;99.90
15231;DHT22;32569;51.762;8.564;2022-12-19T15:42:43;5.00;99.90
15231;DHT22;32569;51.762;8.564;2022-12-19T15:45:13;5.00;99.90
15231;DHT22;32569;51.762;8.564;2022-12-19T15:47:44;4.90;99.90
15231;DHT22;32569;51.762;8.564;2022-12-19T15:50:15;4.80;99.90
15231;DHT22;32569;51.762;8.564;2022-12-19T15:52:43;4.70;99.90
15231;DHT22;32569;51.762;8.564;2022-12-19T15:55:13;5.00;99.90
15231;DHT22;32569;51.762;8.564;2022-12-19T15:57:42;5.30;99.90
15231;DHT22;32569;51.762;8.564;2022-12-19T16:00:16;5.80;99.90
15231;DHT22;32569;51.762;8.564;2022-12-19T16:02:44;6.10;99.90
15231;DHT22;32569;51.762;8.564;2022-12-19T16:05:11;6.20;99.90
15231;DHT22;32569;51.762;8.564;2022-12-19T16:07:38;5.70;99.90
15231;DHT22;32569;51.762;8.564;2022-12-19T16:10:08;5.30;99.90
15231;DHT22;32569;51.762;8.564;2022-12-19T16:12:41;4.80;99.90